Time;durP1;ratioP1;P1;durP2;ratioP2;P2;SDS_P1;SDS_P2;PMS_P1;PMS_P2;Temp;Humidity;BMP_temperature;BMP_pressure;BME280_temperature;BME280_humidity;BME280_pressure;Samples;Min_cycle;Max_cycle;Signal;HPM_P1;HPM_P2
2021/12/01 00:01:02;;;;;;;1.67;1.58;;;;;;;7.11;100.00;95813.25;4944610;28;20086;-52
2021/12/01 00:03:30;;;;;;;1.60;1.50;;;;;;;7.31;100.00;95798.34;4948565;28;20082;-50
2021/12/01 00:06:00;;;;;;;1.60;1.50;;;;;;;6.98;100.00;95767.34;4948574;28;20071;-48
2021/12/01 00:08:28;;;;;;;1.80;1.70;;;;;;;7.28;100.00;95788.13;4948244;28;20055;-48
2021/12/01 00:10:57;;;;;;;1.50;1.50;;;;;;;7.20;100.00;95795.88;4949574;29;20532;-50
2021/12/01 00:13:28;;;;;;;1.80;1.70;;;;;;;7.08;100.00;95789.94;4948530;28;20074;-50
2021/12/01 00:15:57;;;;;;;1.83;1.73;;;;;;;7.24;100.00;95785.94;4947563;29;20074;-48
2021/12/01 00:18:25;;;;;;;1.60;1.50;;;;;;;7.17;100.00;95762.06;4947656;29;20160;-47
2021/12/01 00:20:53;;;;;;;1.70;1.60;;;;;;;7.13;100.00;95765.94;4947255;29;20063;-51
2021/12/01 00:23:23;;;;;;;1.83;1.73;;;;;;;7.19;100.00;95767.16;4947497;29;20086;-50
2021/12/01 00:25:52;;;;;;;1.67;1.58;;;;;;;7.16;100.00;95773.53;4949686;29;20083;-51
2021/12/01 00:28:20;;;;;;;1.75;1.65;;;;;;;7.29;100.00;95781.09;4947830;29;20085;-47
2021/12/01 00:30:49;;;;;;;1.88;1.63;;;;;;;7.44;100.00;95766.56;4947240;29;20087;-50
2021/12/01 00:33:22;;;;;;;1.67;1.58;;;;;;;7.60;100.00;95777.31;4947864;28;20727;-49
2021/12/01 00:35:51;;;;;;;1.75;1.65;;;;;;;7.37;100.00;95775.97;4947932;29;20086;-48
2021/12/01 00:38:21;;;;;;;1.70;1.60;;;;;;;7.25;100.00;95777.09;4947827;28;20086;-50
2021/12/01 00:40:51;;;;;;;1.60;1.50;;;;;;;7.32;100.00;95781.63;4946449;29;20094;-47
2021/12/01 00:43:20;;;;;;;1.65;1.55;;;;;;;7.33;100.00;95772.81;4953254;28;20134;-48
2021/12/01 00:45:51;;;;;;;1.95;1.85;;;;;;;7.31;100.00;95745.91;4952631;28;20070;-47
2021/12/01 00:48:20;;;;;;;1.40;1.40;;;;;;;7.15;100.00;95724.66;4947830;28;20077;-46
2021/12/01 00:50:49;;;;;;;1.52;1.42;;;;;;;7.10;100.00;95760.97;4946404;28;20082;-48
2021/12/01 00:53:18;;;;;;;1.70;1.60;;;;;;;7.23;100.00;95768.56;4947084;29;20071;-50
2021/12/01 00:55:50;;;;;;;1.60;1.50;;;;;;;7.27;100.00;95764.69;4949708;29;20086;-47
2021/12/01 00:58:18;;;;;;;1.60;1.50;;;;;;;7.18;100.00;95755.84;4947345;28;20529;-50
2021/12/01 01:00:48;;;;;;;1.60;1.50;;;;;;;7.24;100.00;95762.34;4946897;28;20075;-47
2021/12/01 01:03:18;;;;;;;1.50;1.40;;;;;;;7.17;100.00;95745.53;4946908;29;20070;-49
2021/12/01 01:05:48;;;;;;;;;;;;;;;7.62;100.00;95758.78;4947472;29;20067;-47
2021/12/01 01:08:17;;;;;;;1.75;1.65;;;;;;;7.55;100.00;95760.31;4947042;28;19965;-48
2021/12/01 01:16:23;;;;;;;1.50;1.40;;;;;;;7.56;100.00;95733.94;4947187;28;20074;-46
2021/12/01 01:18:56;;;;;;;1.48;1.38;;;;;;;7.64;100.00;95729.75;4947234;29;20066;-47
2021/12/01 01:21:28;;;;;;;1.45;1.35;;;;;;;7.44;100.00;95682.63;4946649;28;20066;-50
2021/12/01 01:23:56;;;;;;;1.80;1.70;;;;;;;7.45;100.00;95715.75;4946956;29;20183;-49
2021/12/01 01:26:26;;;;;;;1.58;1.50;;;;;;;7.84;100.00;95726.06;4947194;29;20204;-48
2021/12/01 01:28:56;;;;;;;1.58;1.48;;;;;;;7.66;100.00;95709.47;4948992;29;20113;-48
2021/12/01 01:31:24;;;;;;;1.67;1.58;;;;;;;7.63;100.00;95710.56;4946947;29;20149;-47
2021/12/01 01:33:53;;;;;;;1.42;1.40;;;;;;;7.64;100.00;95717.50;4946989;28;20047;-46
2021/12/01 01:36:22;;;;;;;1.40;1.40;;;;;;;7.70;100.00;95709.00;4947140;28;20073;-49
2021/12/01 01:38:50;;;;;;;1.50;1.40;;;;;;;7.52;100.00;95710.75;4949253;28;20063;-51
2021/12/01 01:41:20;;;;;;;1.40;1.40;;;;;;;7.43;100.00;95698.50;4952313;28;20078;-47
2021/12/01 01:43:50;;;;;;;1.50;1.50;;;;;;;7.81;100.00;95684.38;4949382;29;20101;-47
2021/12/01 01:46:20;;;;;;;1.80;1.70;;;;;;;7.62;100.00;95711.56;4946663;28;20058;-47
2021/12/01 01:48:52;;;;;;;1.60;1.50;;;;;;;7.85;100.00;95699.69;4945779;28;20075;-47
2021/12/01 01:51:23;;;;;;;1.50;1.40;;;;;;;7.69;100.00;95699.50;4946250;28;20074;-47
2021/12/01 01:53:54;;;;;;;;;;;;;;;7.72;100.00;95687.91;4941407;28;20059;-51
2021/12/01 01:56:22;;;;;;;1.40;1.40;;;;;;;7.88;100.00;95700.38;4944418;28;19965;-49
2021/12/01 01:58:51;;;;;;;1.50;1.40;;;;;;;7.70;100.00;95695.91;4949223;29;20090;-51
2021/12/01 02:04:05;;;;;;;1.60;1.50;;;;;;;7.78;100.00;95682.06;4938285;28;20469;-47
2021/12/01 02:06:34;;;;;;;1.60;1.50;;;;;;;7.76;100.00;95663.81;4950259;28;20069;-48
2021/12/01 02:09:02;;;;;;;1.60;1.50;;;;;;;7.74;100.00;95657.91;4949695;28;20073;-46
2021/12/01 02:11:31;;;;;;;1.40;1.40;;;;;;;7.79;100.00;95674.03;4950295;29;20063;-49
2021/12/01 02:13:59;;;;;;;1.40;1.40;;;;;;;7.75;100.00;95670.06;4952849;28;20083;-49
2021/12/01 02:16:29;;;;;;;1.50;1.40;;;;;;;7.83;100.00;95664.06;4949782;29;20075;-47
2021/12/01 02:18:57;;;;;;;1.60;1.50;;;;;;;7.90;100.00;95657.25;4950054;28;20085;-46
2021/12/01 02:21:28;;;;;;;1.50;1.50;;;;;;;7.84;100.00;95650.81;4949505;28;20063;-47
2021/12/01 02:24:00;;;;;;;1.60;1.50;;;;;;;7.73;100.00;95651.00;4950234;28;20071;-50
2021/12/01 02:26:32;;;;;;;1.45;1.40;;;;;;;7.83;100.00;95643.91;4950155;28;20070;-46
2021/12/01 02:29:02;;;;;;;1.60;1.50;;;;;;;7.83;100.00;95637.81;4951666;29;20585;-49
2021/12/01 02:31:34;;;;;;;1.80;1.70;;;;;;;7.74;100.00;95630.81;4949383;28;20212;-48
2021/12/01 02:34:03;;;;;;;1.40;1.40;;;;;;;7.69;100.00;95622.59;4950011;29;20063;-48
2021/12/01 02:36:33;;;;;;;1.50;1.40;;;;;;;7.79;100.00;95625.97;4950933;28;20079;-47
2021/12/01 02:39:04;;;;;;;1.40;1.40;;;;;;;7.74;100.00;95625.56;4943552;29;20075;-50
2021/12/01 02:41:33;;;;;;;1.40;1.40;;;;;;;7.92;100.00;95623.81;4949621;28;20078;-49
2021/12/01 02:44:02;;;;;;;1.50;1.40;;;;;;;7.79;100.00;95610.22;4951823;29;20098;-49
2021/12/01 02:46:31;;;;;;;1.60;1.50;;;;;;;7.95;100.00;95610.41;4949745;29;20608;-48
2021/12/01 02:49:00;;;;;;;1.40;1.40;;;;;;;7.97;100.00;95589.22;4949501;29;20079;-48
2021/12/01 02:51:31;;;;;;;1.60;1.50;;;;;;;8.08;100.00;95605.56;4942716;29;20075;-47
2021/12/01 02:54:01;;;;;;;1.27;1.27;;;;;;;7.85;100.00;95581.59;4949751;28;20551;-48
2021/12/01 02:56:30;;;;;;;1.70;1.60;;;;;;;7.70;100.00;95590.94;4949976;28;20097;-46
2021/12/01 02:59:00;;;;;;;1.60;1.50;;;;;;;8.07;100.00;95590.00;4951452;29;20055;-48
2021/12/01 03:01:29;;;;;;;1.57;1.47;;;;;;;7.91;100.00;95566.19;4949578;29;20071;-47
2021/12/01 03:03:59;;;;;;;1.60;1.50;;;;;;;8.04;100.00;95579.78;4949623;28;20529;-48
2021/12/01 03:06:29;;;;;;;1.70;1.60;;;;;;;7.69;100.00;95578.78;4948508;29;20071;-48
2021/12/01 03:08:58;;;;;;;1.50;1.40;;;;;;;7.78;100.00;95561.34;4949466;28;20562;-51
2021/12/01 03:11:27;;;;;;;1.60;1.50;;;;;;;7.78;100.00;95554.28;4948612;28;20087;-48
2021/12/01 03:13:56;;;;;;;1.40;1.40;;;;;;;7.74;100.00;95555.56;4951235;29;20505;-47
2021/12/01 03:16:25;;;;;;;1.30;1.30;;;;;;;7.82;100.00;95547.75;4948744;28;20305;-46
2021/12/01 03:18:53;;;;;;;1.40;1.40;;;;;;;7.64;100.00;95556.59;4949079;29;20063;-50
2021/12/01 03:21:22;;;;;;;1.40;1.40;;;;;;;7.51;100.00;95542.06;4948756;28;20066;-49
2021/12/01 03:23:50;;;;;;;1.45;1.42;;;;;;;7.70;100.00;95551.56;4948757;28;20078;-49
2021/12/01 03:26:19;;;;;;;1.60;1.50;;;;;;;7.82;100.00;95565.31;4948880;28;20075;-46
2021/12/01 03:28:49;;;;;;;2.28;1.50;;;;;;;7.61;100.00;95557.72;4951337;29;20098;-48
2021/12/01 03:31:17;;;;;;;1.60;1.50;;;;;;;7.82;100.00;95566.13;4948378;28;20081;-50
2021/12/01 03:33:46;;;;;;;1.50;1.40;;;;;;;7.71;100.00;95553.25;4961353;28;20153;-48
2021/12/01 03:36:14;;;;;;;1.70;1.60;;;;;;;7.74;100.00;95552.94;4950193;28;20075;-52
2021/12/01 03:38:43;;;;;;;1.60;1.50;;;;;;;7.60;100.00;95556.91;4948484;28;20067;-49
2021/12/01 03:41:12;;;;;;;1.40;1.40;;;;;;;7.82;100.00;95570.56;4947744;28;20087;-48
2021/12/01 03:43:40;;;;;;;1.60;1.50;;;;;;;7.73;100.00;95540.78;4951102;29;20079;-45
2021/12/01 03:46:10;;;;;;;2.38;1.50;;;;;;;7.55;100.00;95539.97;4948544;28;20089;-45
2021/12/01 03:48:38;;;;;;;1.60;1.50;;;;;;;7.66;100.00;95557.28;4948695;29;20081;-48
2021/12/01 03:51:07;;;;;;;1.40;1.40;;;;;;;7.77;100.00;95549.19;4947820;28;20085;-45
2021/12/01 03:53:35;;;;;;;1.60;1.50;;;;;;;7.65;100.00;95548.59;4948233;28;20086;-46
2021/12/01 03:56:04;;;;;;;1.60;1.50;;;;;;;7.72;100.00;95551.44;4950465;29;20090;-49
2021/12/01 03:58:32;;;;;;;1.63;1.52;;;;;;;7.73;100.00;95553.91;4948312;29;20074;-48
2021/12/01 04:01:01;;;;;;;1.70;1.60;;;;;;;7.54;100.00;95515.53;4947782;29;20079;-49
2021/12/01 04:03:31;;;;;;;1.98;1.50;;;;;;;8.08;100.00;95547.00;4942594;29;20082;-48
2021/12/01 04:05:59;;;;;;;1.55;1.45;;;;;;;7.76;100.00;95545.72;4948593;29;20043;-48
2021/12/01 04:08:28;;;;;;;7.10;1.70;;;;;;;7.67;100.00;95536.13;4941807;28;20175;-49
2021/12/01 04:10:56;;;;;;;1.70;1.60;;;;;;;7.80;100.00;95533.97;4950166;28;20082;-49
2021/12/01 04:13:25;;;;;;;1.60;1.50;;;;;;;7.57;100.00;95528.34;4947944;29;20070;-53
2021/12/01 04:15:53;;;;;;;1.70;1.60;;;;;;;7.69;100.00;95528.13;4947901;29;20071;-51
2021/12/01 04:18:21;;;;;;;1.67;1.58;;;;;;;7.72;100.00;95528.66;4948088;29;20097;-47
2021/12/01 04:20:51;;;;;;;1.70;1.60;;;;;;;7.58;100.00;95524.75;4947189;28;20067;-46
2021/12/01 04:23:20;;;;;;;1.83;1.73;;;;;;;8.05;100.00;95528.91;4947893;28;20071;-46
2021/12/01 04:25:49;;;;;;;1.70;1.60;;;;;;;7.79;100.00;95516.56;4950247;29;20525;-48
2021/12/01 04:28:18;;;;;;;1.90;1.80;;;;;;;7.82;100.00;95518.91;4951745;28;20066;-48
2021/12/01 04:30:46;;;;;;;1.80;1.70;;;;;;;7.98;100.00;95523.47;4952178;28;20067;-49
2021/12/01 04:33:15;;;;;;;1.92;1.80;;;;;;;8.00;100.00;95523.31;4947812;28;20078;-47
2021/12/01 04:35:45;;;;;;;1.70;1.60;;;;;;;7.94;100.00;95514.22;4947099;29;20086;-47
2021/12/01 04:38:16;;;;;;;1.90;1.80;;;;;;;8.02;100.00;95514.31;4947230;28;20094;-48
2021/12/01 04:40:44;;;;;;;1.90;1.80;;;;;;;8.23;100.00;95510.53;4949828;29;20539;-46
2021/12/01 04:43:13;;;;;;;1.80;1.70;;;;;;;8.12;100.00;95505.50;4947290;28;20070;-48
2021/12/01 04:45:42;;;;;;;2.70;2.28;;;;;;;8.23;100.00;95510.53;4947063;28;20126;-46
2021/12/01 04:48:11;;;;;;;1.92;1.70;;;;;;;8.26;100.00;95508.41;4947245;28;20090;-47
2021/12/01 04:50:39;;;;;;;1.80;1.70;;;;;;;8.38;100.00;95502.94;4946975;28;20071;-46
2021/12/01 04:53:08;;;;;;;1.73;1.63;;;;;;;8.21;100.00;95497.53;4949961;29;20098;-48
2021/12/01 04:55:38;;;;;;;2.08;1.85;;;;;;;8.17;100.00;95487.50;4947245;29;20557;-48
2021/12/01 04:58:07;;;;;;;1.90;1.80;;;;;;;8.03;100.00;95494.94;4946924;29;20488;-46
2021/12/01 05:00:37;;;;;;;2.00;1.90;;;;;;;8.37;100.00;95494.19;4946097;29;20067;-50
2021/12/01 05:03:06;;;;;;;2.00;1.90;;;;;;;8.31;100.00;95482.50;4946636;28;20469;-48
2021/12/01 05:05:51;;;;;;;1.90;1.80;;;;;;;8.45;100.00;95480.31;4947668;28;20071;-49
2021/12/01 05:08:21;;;;;;;2.00;1.90;;;;;;;8.25;100.00;95477.84;4940771;28;20098;-52
2021/12/01 05:10:51;;;;;;;1.92;1.65;;;;;;;8.18;100.00;95476.00;4949516;29;20085;-48
2021/12/01 05:13:21;;;;;;;2.00;1.80;;;;;;;8.56;100.00;95469.53;4941904;29;20067;-51
2021/12/01 05:15:49;;;;;;;2.07;1.87;;;;;;;8.11;100.00;95474.97;4947310;28;20082;-49
2021/12/01 05:18:18;;;;;;;1.95;1.85;;;;;;;8.24;100.00;95473.59;4947520;28;20904;-44
2021/12/01 05:20:46;;;;;;;1.90;1.80;;;;;;;8.14;100.00;95467.63;4947173;29;20071;-47
2021/12/01 05:23:16;;;;;;;2.20;2.00;;;;;;;8.35;100.00;95474.31;4947058;28;20087;-51
2021/12/01 05:25:47;;;;;;;1.90;1.80;;;;;;;8.20;100.00;95460.94;4952564;28;20082;-46
2021/12/01 05:28:16;;;;;;;1.90;1.80;;;;;;;8.47;100.00;95467.84;4947254;28;20075;-49
2021/12/01 05:30:45;;;;;;;2.17;1.98;;;;;;;8.32;100.00;95450.00;4947062;28;20501;-47
2021/12/01 05:33:15;;;;;;;1.90;1.80;;;;;;;8.77;100.00;95451.59;4947043;29;20070;-48
2021/12/01 05:35:46;;;;;;;1.95;1.85;;;;;;;8.49;100.00;95444.88;4947632;29;20074;-47
2021/12/01 05:38:15;;;;;;;2.10;1.92;;;;;;;8.32;100.00;95447.38;4944010;28;20086;-49
2021/12/01 05:40:46;;;;;;;2.30;2.10;;;;;;;8.45;100.00;95446.16;4952524;29;20079;-50
2021/12/01 05:43:16;;;;;;;;;;;;;;;8.21;100.00;95439.75;4950939;28;20071;-48
2021/12/01 05:45:45;;;;;;;2.05;1.85;;;;;;;8.28;100.00;95435.53;4950542;28;19984;-46
2021/12/01 05:48:14;;;;;;;2.20;2.00;;;;;;;8.31;100.00;95429.97;4951072;28;20513;-50
2021/12/01 05:50:43;;;;;;;3.03;1.92;;;;;;;8.09;100.00;95426.06;4949745;28;20712;-46
2021/12/01 05:53:11;;;;;;;2.08;1.98;;;;;;;8.30;100.00;95420.44;4950464;29;20089;-46
2021/12/01 05:55:41;;;;;;;2.13;2.00;;;;;;;7.79;100.00;95408.97;4953162;29;20074;-46
2021/12/01 05:58:10;;;;;;;2.00;1.90;;;;;;;8.29;100.00;95417.97;4950226;28;20077;-48
2021/12/01 06:00:40;;;;;;;2.28;2.10;;;;;;;8.13;100.00;95417.91;4950365;29;20067;-46
2021/12/01 06:03:08;;;;;;;2.40;2.10;;;;;;;8.15;100.00;95421.16;4950343;28;20075;-46
2021/12/01 06:05:37;;;;;;;2.08;1.98;;;;;;;8.08;100.00;95419.16;4950585;28;20067;-51
2021/12/01 06:08:06;;;;;;;2.38;2.17;;;;;;;8.12;100.00;95418.84;4952526;29;20480;-50
2021/12/01 06:10:35;;;;;;;2.58;2.20;;;;;;;8.14;100.00;95414.28;4948213;28;20081;-49
2021/12/01 06:13:04;;;;;;;2.40;2.20;;;;;;;8.34;100.00;95405.19;4950512;28;20074;-48
2021/12/01 06:15:32;;;;;;;2.40;2.20;;;;;;;8.18;100.00;95413.00;4950727;28;20062;-52
2021/12/01 06:18:03;;;;;;;2.30;2.10;;;;;;;8.02;100.00;95406.66;4949741;29;20063;-50
2021/12/01 06:20:32;;;;;;;2.40;2.20;;;;;;;8.13;100.00;95404.75;4951530;28;20078;-53
2021/12/01 06:23:00;;;;;;;2.47;2.25;;;;;;;8.26;100.00;95392.03;4953382;28;20062;-48
2021/12/01 06:25:28;;;;;;;2.50;2.30;;;;;;;8.46;100.00;95385.56;4946095;28;20082;-51
2021/12/01 06:27:57;;;;;;;2.70;2.50;;;;;;;8.21;100.00;95376.72;4950143;28;20083;-54
2021/12/01 06:30:26;;;;;;;2.42;2.22;;;;;;;8.28;100.00;95384.81;4949056;29;20105;-52
2021/12/01 06:32:55;;;;;;;2.20;2.00;;;;;;;7.96;100.00;95385.47;4949943;28;20074;-47
2021/12/01 06:35:25;;;;;;;2.30;2.10;;;;;;;8.24;100.00;95373.78;4950328;28;20086;-47
2021/12/01 06:37:55;;;;;;;2.33;2.13;;;;;;;7.81;100.00;95372.06;4952172;29;20083;-48
2021/12/01 06:40:24;;;;;;;2.60;2.03;;;;;;;8.50;100.00;95370.34;4949835;28;20086;-48
2021/12/01 06:42:52;;;;;;;2.00;1.90;;;;;;;8.22;100.00;95362.63;4949388;29;20071;-46
2021/12/01 06:45:21;;;;;;;2.03;1.90;;;;;;;8.02;100.00;95345.47;4950046;29;20071;-50
2021/12/01 06:47:50;;;;;;;2.10;2.00;;;;;;;8.30;100.00;95349.53;4949735;29;20126;-50
2021/12/01 06:50:18;;;;;;;2.40;2.20;;;;;;;8.42;100.00;95344.84;4948402;28;20568;-52
2021/12/01 06:52:48;;;;;;;1.92;1.83;;;;;;;8.05;100.00;95345.97;4951851;29;20067;-48
2021/12/01 06:55:17;;;;;;;2.00;1.90;;;;;;;8.23;100.00;95342.44;4949932;28;20063;-46
2021/12/01 06:57:46;;;;;;;1.80;1.67;;;;;;;8.22;100.00;95333.72;4948336;28;20118;-50
2021/12/01 07:00:15;;;;;;;1.98;1.80;;;;;;;8.26;100.00;95329.84;4948980;29;20082;-48
2021/12/01 07:02:44;;;;;;;2.22;1.85;;;;;;;8.27;100.00;95334.09;4949030;28;20069;-49
2021/12/01 07:05:13;;;;;;;2.00;1.90;;;;;;;8.36;100.00;95326.22;4949251;28;20066;-52
2021/12/01 07:07:41;;;;;;;2.10;1.83;;;;;;;8.81;100.00;95325.91;4951636;29;20086;-46
2021/12/01 07:10:13;;;;;;;2.20;2.00;;;;;;;8.68;100.00;95321.13;4948974;29;20125;-49
2021/12/01 07:12:43;;;;;;;2.10;1.90;;;;;;;8.45;100.00;95318.25;4949254;28;20085;-48
2021/12/01 07:15:12;;;;;;;2.17;1.98;;;;;;;8.35;100.00;95319.34;4949694;28;20089;-50
2021/12/01 07:17:40;;;;;;;2.28;1.95;;;;;;;8.58;100.00;95309.94;4954741;28;20070;-49
2021/12/01 07:20:10;;;;;;;1.90;1.80;;;;;;;8.60;100.00;95315.81;4953739;28;20548;-49
2021/12/01 07:22:38;;;;;;;3.47;1.88;;;;;;;8.32;100.00;95300.28;4949581;29;20319;-50
2021/12/01 07:25:07;;;;;;;1.95;1.85;;;;;;;8.48;100.00;95298.72;4948865;28;20065;-50
2021/12/01 07:27:37;;;;;;;2.20;1.98;;;;;;;8.48;100.00;95299.56;4948398;29;20070;-54
2021/12/01 07:30:06;;;;;;;2.00;1.90;;;;;;;8.66;100.00;95291.53;4949168;28;20066;-53
2021/12/01 07:32:34;;;;;;;1.80;1.70;;;;;;;8.61;100.00;95309.59;4947678;29;20063;-50
2021/12/01 07:35:03;;;;;;;2.80;1.90;;;;;;;8.51;100.00;95296.59;4951284;28;20067;-49
2021/12/01 07:37:32;;;;;;;2.30;2.00;;;;;;;8.80;100.00;95292.72;4948746;29;20483;-52
2021/12/01 07:40:00;;;;;;;1.70;1.60;;;;;;;8.54;100.00;95282.34;4948321;29;20079;-51
2021/12/01 07:42:28;;;;;;;1.85;1.75;;;;;;;8.64;100.00;95276.94;4948193;29;20071;-55
2021/12/01 07:44:58;;;;;;;1.70;1.60;;;;;;;8.71;100.00;95272.69;4948770;28;20067;-54
2021/12/01 07:47:27;;;;;;;1.90;1.80;;;;;;;8.60;100.00;95275.59;4948575;29;20090;-51
2021/12/01 07:49:55;;;;;;;1.80;1.70;;;;;;;8.40;100.00;95272.44;4950323;29;20086;-48
2021/12/01 07:52:23;;;;;;;1.80;1.70;;;;;;;8.69;100.00;95261.50;4948122;29;20059;-51
2021/12/01 07:54:52;;;;;;;1.80;1.70;;;;;;;8.75;100.00;95264.28;4948758;28;20074;-49
2021/12/01 07:57:20;;;;;;;1.70;1.60;;;;;;;8.75;100.00;95256.41;4948274;28;20147;-54
2021/12/01 07:59:48;;;;;;;1.90;1.80;;;;;;;8.79;100.00;95244.59;4941666;29;20067;-52
2021/12/01 08:02:18;;;;;;;1.70;1.60;;;;;;;8.82;100.00;95242.63;4947754;28;20089;-48
2021/12/01 08:04:47;;;;;;;1.80;1.70;;;;;;;8.57;100.00;95239.97;4951005;29;20097;-53
2021/12/01 08:07:15;;;;;;;1.73;1.63;;;;;;;8.54;100.00;95243.75;4947934;28;20074;-50
2021/12/01 08:09:43;;;;;;;3.08;1.60;;;;;;;8.80;100.00;95240.97;4948187;28;20075;-53
2021/12/01 08:12:12;;;;;;;2.55;1.52;;;;;;;8.43;100.00;95238.81;4948097;28;20082;-51
2021/12/01 08:14:41;;;;;;;1.80;1.70;;;;;;;8.47;100.00;95213.84;4953693;28;20087;-50
2021/12/01 08:17:10;;;;;;;1.67;1.58;;;;;;;8.50;100.00;95223.22;4948150;28;20702;-52
2021/12/01 08:19:39;;;;;;;1.45;1.35;;;;;;;8.46;100.00;95211.38;4950237;28;20097;-50
2021/12/01 08:22:09;;;;;;;1.70;1.60;;;;;;;8.28;100.00;95219.34;4947452;29;20067;-51
2021/12/01 08:24:38;;;;;;;1.90;1.80;;;;;;;8.58;100.00;95210.09;4948158;28;20074;-48
2021/12/01 08:27:06;;;;;;;1.98;1.50;;;;;;;8.51;100.00;95199.41;4948018;28;20111;-53
2021/12/01 08:29:35;;;;;;;1.88;1.67;;;;;;;8.18;100.00;95208.16;4947800;29;20074;-50
2021/12/01 08:32:04;;;;;;;1.60;1.50;;;;;;;8.33;100.00;95199.50;4950364;28;20403;-53
2021/12/01 08:34:32;;;;;;;2.17;1.63;;;;;;;8.33;100.00;95209.19;4947932;29;20062;-52
2021/12/01 08:37:02;;;;;;;1.70;1.60;;;;;;;8.26;100.00;95185.38;4947675;28;20075;-47
2021/12/01 08:39:30;;;;;;;1.90;1.80;;;;;;;8.48;100.00;95209.41;4944217;28;20908;-51
2021/12/01 08:41:59;;;;;;;3.20;1.75;;;;;;;8.59;100.00;95222.22;4947430;29;20070;-47
2021/12/01 08:44:27;;;;;;;1.70;1.60;;;;;;;8.45;100.00;95213.19;4944005;29;20094;-49
2021/12/01 08:46:58;;;;;;;1.95;1.77;;;;;;;8.69;100.00;95217.63;4949830;29;20087;-50
2021/12/01 08:49:26;;;;;;;1.70;1.60;;;;;;;8.28;100.00;95196.53;4947007;29;21097;-47
2021/12/01 08:51:55;;;;;;;1.80;1.65;;;;;;;8.58;100.00;95204.81;4947212;29;20078;-51
2021/12/01 08:54:24;;;;;;;1.75;1.65;;;;;;;8.51;100.00;95201.22;4947438;28;20584;-49
2021/12/01 08:56:53;;;;;;;1.90;1.80;;;;;;;8.51;100.00;95204.66;4947767;28;20526;-48
2021/12/01 08:59:21;;;;;;;1.70;1.60;;;;;;;8.59;100.00;95211.72;4947528;28;20170;-51
2021/12/01 09:01:50;;;;;;;1.80;1.70;;;;;;;8.74;100.00;95209.25;4949428;29;20105;-48
2021/12/01 09:04:19;;;;;;;3.25;1.70;;;;;;;8.77;100.00;95201.88;4947607;29;20529;-50
2021/12/01 09:06:47;;;;;;;1.60;1.50;;;;;;;8.45;100.00;95189.53;4947444;29;20083;-49
2021/12/01 09:09:18;;;;;;;1.60;1.50;;;;;;;8.93;100.00;95184.44;4948933;28;20075;-49
2021/12/01 09:11:49;;;;;;;1.75;1.65;;;;;;;9.06;100.00;95203.19;4953516;28;20171;-52
2021/12/01 09:14:20;;;;;;;1.70;1.60;;;;;;;8.68;100.00;95194.97;4949223;28;20126;-50
2021/12/01 09:16:48;;;;;;;2.15;1.70;;;;;;;8.97;100.00;95191.84;4953099;29;20090;-46
2021/12/01 09:19:17;;;;;;;1.40;1.30;;;;;;;9.04;100.00;95197.25;4950806;29;20063;-49
2021/12/01 09:21:45;;;;;;;1.80;1.70;;;;;;;9.18;100.00;95191.31;4951544;28;20070;-52
2021/12/01 09:24:15;;;;;;;2.20;1.40;;;;;;;9.13;100.00;95172.59;4951172;29;20078;-55
2021/12/01 09:26:43;;;;;;;1.70;1.60;;;;;;;9.57;100.00;95177.41;4951483;29;20551;-52
2021/12/01 09:29:13;;;;;;;1.60;1.50;;;;;;;9.66;100.00;95163.22;4950572;29;20559;-51
2021/12/01 09:31:42;;;;;;;1.53;1.43;;;;;;;9.70;100.00;95161.06;4953385;29;20090;-48
2021/12/01 09:34:10;;;;;;;1.50;1.40;;;;;;;9.97;100.00;95180.84;4950616;29;20069;-50
2021/12/01 09:36:38;;;;;;;1.35;1.33;;;;;;;9.78;100.00;95160.22;4951414;28;20066;-51
2021/12/01 09:39:07;;;;;;;1.50;1.40;;;;;;;9.80;100.00;95158.22;4950356;29;20171;-53
2021/12/01 09:41:36;;;;;;;1.50;1.30;;;;;;;9.79;100.00;95154.78;4951455;29;20068;-49
2021/12/01 09:44:05;;;;;;;1.45;1.35;;;;;;;9.84;100.00;95164.78;4953187;29;20086;-50
2021/12/01 09:46:35;;;;;;;1.45;1.35;;;;;;;10.16;100.00;95163.81;4948553;29;20079;-50
2021/12/01 09:49:03;;;;;;;1.50;1.40;;;;;;;10.38;100.00;95151.66;4950595;29;20070;-49
2021/12/01 09:51:32;;;;;;;1.40;1.30;;;;;;;10.03;100.00;95150.38;4945232;28;20133;-48
2021/12/01 09:54:02;;;;;;;1.20;1.10;;;;;;;10.19;100.00;95150.28;4950875;28;20638;-51
2021/12/01 09:56:31;;;;;;;1.45;1.35;;;;;;;9.97;100.00;95149.25;4950949;28;20485;-49
2021/12/01 09:59:00;;;;;;;1.70;1.40;;;;;;;9.70;100.00;95127.69;4952540;29;20094;-54
2021/12/01 10:01:29;;;;;;;1.30;1.20;;;;;;;9.94;100.00;95123.25;4950872;29;20070;-51
2021/12/01 10:03:59;;;;;;;1.40;1.30;;;;;;;10.29;100.00;95121.09;4950452;28;20584;-49
2021/12/01 10:06:28;;;;;;;1.33;1.20;;;;;;;10.13;100.00;95104.38;4956152;28;20077;-53
2021/12/01 10:09:00;;;;;;;1.30;1.20;;;;;;;9.89;100.00;95113.25;4953540;28;20067;-49
2021/12/01 10:11:29;;;;;;;1.10;1.10;;;;;;;9.74;100.00;95102.66;4950047;28;20102;-49
2021/12/01 10:14:00;;;;;;;1.55;1.33;;;;;;;9.93;100.00;95101.38;4952326;29;20178;-51
2021/12/01 10:16:29;;;;;;;;;;;;;;;10.47;100.00;95097.91;4950612;29;20105;-51
2021/12/01 10:19:01;;;;;;;1.50;1.27;;;;;;;10.47;100.00;95082.09;4950404;28;19938;-51
2021/12/01 10:21:33;;;;;;;1.40;1.30;;;;;;;10.28;100.00;95079.94;4949633;28;20082;-50
2021/12/01 10:24:04;;;;;;;1.20;1.20;;;;;;;10.33;100.00;95067.88;4949884;28;20067;-50
2021/12/01 10:26:34;;;;;;;1.52;1.40;;;;;;;10.27;100.00;95063.31;4949660;28;20089;-48
2021/12/01 10:29:05;;;;;;;1.30;1.20;;;;;;;10.34;100.00;95055.53;4952200;29;20525;-47
2021/12/01 10:31:37;;;;;;;1.40;1.30;;;;;;;10.70;100.00;95053.03;4949323;29;20170;-51
2021/12/01 10:34:27;;;;;;;1.40;1.30;;;;;;;10.51;100.00;95035.13;4949758;28;20063;-52
2021/12/01 10:37:14;;;;;;;1.30;1.20;;;;;;;10.86;100.00;95033.63;4949690;28;20484;-47
2021/12/01 10:39:44;;;;;;;1.40;1.30;;;;;;;10.84;100.00;95032.97;4949267;29;20077;-49
2021/12/01 10:42:15;;;;;;;1.48;1.38;;;;;;;10.67;100.00;95019.16;4949450;29;20111;-49
2021/12/01 10:45:03;;;;;;;1.77;1.40;;;;;;;10.74;100.00;95021.91;4949955;28;20536;-51
2021/12/01 10:47:40;;;;;;;1.48;1.38;;;;;;;10.75;100.00;95000.59;4946221;29;20074;-50
2021/12/01 10:50:11;;;;;;;1.30;1.20;;;;;;;10.88;100.00;95000.78;4951769;28;20098;-51
2021/12/01 10:52:42;;;;;;;1.30;1.20;;;;;;;11.08;100.00;94982.59;4949566;28;20483;-50
2021/12/01 10:55:13;;;;;;;1.50;1.40;;;;;;;11.03;100.00;94982.31;4949572;28;20074;-52
2021/12/01 10:57:42;;;;;;;1.30;1.20;;;;;;;11.47;100.00;94973.50;4949064;29;20078;-51
2021/12/01 11:00:16;;;;;;;1.10;1.10;;;;;;;11.91;100.00;94947.97;4949168;28;20074;-52
2021/12/01 11:02:45;;;;;;;1.30;1.20;;;;;;;11.90;100.00;94947.13;4954760;28;20549;-52
2021/12/01 11:05:28;;;;;;;1.40;1.30;;;;;;;12.37;100.00;94940.38;4950076;28;20082;-53
2021/12/01 11:07:57;;;;;;;1.58;1.48;;;;;;;12.00;100.00;94929.13;4951184;29;20090;-48
2021/12/01 11:10:26;;;;;;;1.17;1.08;;;;;;;12.59;100.00;94922.63;4948439;28;20142;-52
2021/12/01 11:12:56;;;;;;;1.77;1.10;;;;;;;12.04;100.00;94919.84;4949412;28;20081;-48
2021/12/01 11:15:27;;;;;;;1.00;1.00;;;;;;;11.88;100.00;94915.63;4949240;29;20071;-51
2021/12/01 11:17:56;;;;;;;1.13;1.00;;;;;;;12.24;100.00;94911.22;4948706;28;20066;-49
2021/12/01 11:20:41;;;;;;;1.00;1.00;;;;;;;12.27;100.00;94900.28;4948852;29;20094;-51
2021/12/01 11:23:13;;;;;;;1.00;1.00;;;;;;;11.50;100.00;94909.78;4948559;29;20094;-53
2021/12/01 11:25:44;;;;;;;1.05;1.02;;;;;;;11.35;100.00;94882.63;4951318;29;20094;-49
2021/12/01 11:28:14;;;;;;;1.10;1.00;;;;;;;11.44;100.00;94894.69;4948790;29;20063;-50
2021/12/01 11:30:44;;;;;;;1.30;1.20;;;;;;;11.58;100.00;94882.44;4948780;28;20082;-53
2021/12/01 11:33:16;;;;;;;0.90;0.90;;;;;;;11.45;100.00;94853.28;4943416;29;20066;-50
2021/12/01 11:35:48;;;;;;;1.10;1.05;;;;;;;11.37;100.00;94884.06;4948984;28;20067;-48
2021/12/01 11:38:18;;;;;;;1.00;1.00;;;;;;;11.25;100.00;94872.41;4947848;28;20113;-49
2021/12/01 11:40:53;;;;;;;1.08;1.08;;;;;;;11.24;100.00;94868.09;4950927;28;20047;-46
2021/12/01 11:43:24;;;;;;;2.25;1.10;;;;;;;11.53;100.00;94861.09;4948563;28;20090;-47
2021/12/01 11:45:53;;;;;;;2.30;1.13;;;;;;;11.02;100.00;94834.81;4948285;29;20113;-47
2021/12/01 11:48:24;;;;;;;1.20;1.20;;;;;;;11.02;100.00;94838.25;4948739;29;20091;-52
2021/12/01 11:51:03;;;;;;;1.25;1.10;;;;;;;10.85;100.00;94848.22;4947990;29;20075;-49
2021/12/01 11:53:34;;;;;;;1.30;1.20;;;;;;;10.93;100.00;94834.91;4948054;29;20071;-47